sensor_id;sensor_type;location;lat;lon;timestamp;temperature;humidity
25568;DHT22;13455;51.480;7.594;2023-04-24T00:01:41;11.30;99.90
25568;DHT22;13455;51.480;7.594;2023-04-24T00:04:08;11.30;99.90
25568;DHT22;13455;51.480;7.594;2023-04-24T00:06:38;11.30;99.90
25568;DHT22;13455;51.480;7.594;2023-04-24T00:09:08;11.20;99.90
25568;DHT22;13455;51.480;7.594;2023-04-24T00:11:35;11.20;99.90
25568;DHT22;13455;51.480;7.594;2023-04-24T00:14:02;10.30;99.90
25568;DHT22;13455;51.480;7.594;2023-04-24T00:16:27;11.30;99.90
25568;DHT22;13455;51.480;7.594;2023-04-24T00:18:53;11.10;99.90
25568;DHT22;13455;51.480;7.594;2023-04-24T00:21:19;11.00;99.90
25568;DHT22;13455;51.480;7.594;2023-04-24T00:23:46;11.00;99.90
25568;DHT22;13455;51.480;7.594;2023-04-24T00:26:12;11.00;99.90
25568;DHT22;13455;51.480;7.594;2023-04-24T00:28:37;11.10;99.90
25568;DHT22;13455;51.480;7.594;2023-04-24T00:31:03;11.00;99.90
25568;DHT22;13455;51.480;7.594;2023-04-24T00:33:29;11.00;99.90
25568;DHT22;13455;51.480;7.594;2023-04-24T00:35:54;10.90;99.90
25568;DHT22;13455;51.480;7.594;2023-04-24T00:38:20;10.90;99.90
25568;DHT22;13455;51.480;7.594;2023-04-24T00:40:47;11.00;99.90
25568;DHT22;13455;51.480;7.594;2023-04-24T00:43:13;10.90;99.90
25568;DHT22;13455;51.480;7.594;2023-04-24T00:45:39;11.00;99.90
25568;DHT22;13455;51.480;7.594;2023-04-24T00:48:05;10.80;99.90
25568;DHT22;13455;51.480;7.594;2023-04-24T00:50:32;10.90;99.90
25568;DHT22;13455;51.480;7.594;2023-04-24T00:52:57;10.70;99.90
25568;DHT22;13455;51.480;7.594;2023-04-24T00:55:24;10.70;99.90
25568;DHT22;13455;51.480;7.594;2023-04-24T00:57:50;10.70;99.90
25568;DHT22;13455;51.480;7.594;2023-04-24T01:00:16;10.60;99.90
25568;DHT22;13455;51.480;7.594;2023-04-24T01:02:44;10.60;99.90
25568;DHT22;13455;51.480;7.594;2023-04-24T01:05:11;10.60;99.90
25568;DHT22;13455;51.480;7.594;2023-04-24T01:07:38;10.60;99.90
25568;DHT22;13455;51.480;7.594;2023-04-24T01:10:04;10.60;99.90
25568;DHT22;13455;51.480;7.594;2023-04-24T01:12:30;10.60;99.90
25568;DHT22;13455;51.480;7.594;2023-04-24T01:14:56;10.50;99.90
25568;DHT22;13455;51.480;7.594;2023-04-24T01:17:22;10.50;99.90
25568;DHT22;13455;51.480;7.594;2023-04-24T01:19:47;10.40;99.90
25568;DHT22;13455;51.480;7.594;2023-04-24T01:22:14;10.50;99.90
25568;DHT22;13455;51.480;7.594;2023-04-24T01:24:41;10.70;99.90
25568;DHT22;13455;51.480;7.594;2023-04-24T01:27:08;10.40;99.90
25568;DHT22;13455;51.480;7.594;2023-04-24T01:29:34;10.40;99.90
25568;DHT22;13455;51.480;7.594;2023-04-24T01:32:00;10.40;99.90
25568;DHT22;13455;51.480;7.594;2023-04-24T01:34:26;10.40;99.90
25568;DHT22;13455;51.480;7.594;2023-04-24T01:36:52;10.40;99.90
25568;DHT22;13455;51.480;7.594;2023-04-24T01:39:18;10.40;99.90
25568;DHT22;13455;51.480;7.594;2023-04-24T01:41:46;10.50;99.90
25568;DHT22;13455;51.480;7.594;2023-04-24T01:44:12;10.50;99.90
25568;DHT22;13455;51.480;7.594;2023-04-24T01:46:38;10.50;99.90
25568;DHT22;13455;51.480;7.594;2023-04-24T01:49:04;10.50;99.90
25568;DHT22;13455;51.480;7.594;2023-04-24T01:51:29;10.60;99.90
25568;DHT22;13455;51.480;7.594;2023-04-24T01:53:55;10.60;99.90
25568;DHT22;13455;51.480;7.594;2023-04-24T01:56:22;10.60;99.90
25568;DHT22;13455;51.480;7.594;2023-04-24T01:58:50;10.50;99.90
25568;DHT22;13455;51.480;7.594;2023-04-24T02:01:20;10.50;99.90
25568;DHT22;13455;51.480;7.594;2023-04-24T02:03:46;10.80;99.90
25568;DHT22;13455;51.480;7.594;2023-04-24T02:06:12;10.60;99.90
25568;DHT22;13455;51.480;7.594;2023-04-24T02:08:37;10.60;99.90
25568;DHT22;13455;51.480;7.594;2023-04-24T02:11:03;10.60;99.90
25568;DHT22;13455;51.480;7.594;2023-04-24T02:13:29;10.60;99.90
25568;DHT22;13455;51.480;7.594;2023-04-24T02:15:54;10.70;99.90
25568;DHT22;13455;51.480;7.594;2023-04-24T02:18:20;10.60;99.90
25568;DHT22;13455;51.480;7.594;2023-04-24T02:20:46;10.90;99.90
25568;DHT22;13455;51.480;7.594;2023-04-24T02:23:11;10.70;99.90
25568;DHT22;13455;51.480;7.594;2023-04-24T02:25:38;10.60;99.90
25568;DHT22;13455;51.480;7.594;2023-04-24T02:28:04;10.70;99.90
25568;DHT22;13455;51.480;7.594;2023-04-24T02:30:29;10.70;99.90
25568;DHT22;13455;51.480;7.594;2023-04-24T02:32:55;10.60;99.90
25568;DHT22;13455;51.480;7.594;2023-04-24T02:35:21;10.60;99.90
25568;DHT22;13455;51.480;7.594;2023-04-24T02:37:47;10.70;99.90
25568;DHT22;13455;51.480;7.594;2023-04-24T02:40:12;10.60;99.90
25568;DHT22;13455;51.480;7.594;2023-04-24T02:42:38;10.60;99.90
25568;DHT22;13455;51.480;7.594;2023-04-24T02:45:04;10.60;99.90
25568;DHT22;13455;51.480;7.594;2023-04-24T02:47:30;10.60;99.90
25568;DHT22;13455;51.480;7.594;2023-04-24T02:49:56;10.60;99.90
25568;DHT22;13455;51.480;7.594;2023-04-24T02:52:21;10.50;99.90
25568;DHT22;13455;51.480;7.594;2023-04-24T02:54:47;10.50;99.90
25568;DHT22;13455;51.480;7.594;2023-04-24T02:57:12;10.60;99.90
25568;DHT22;13455;51.480;7.594;2023-04-24T02:59:38;10.50;99.90
25568;DHT22;13455;51.480;7.594;2023-04-24T03:02:03;10.50;99.90
25568;DHT22;13455;51.480;7.594;2023-04-24T03:04:29;10.50;99.90
25568;DHT22;13455;51.480;7.594;2023-04-24T03:06:55;10.40;99.90
25568;DHT22;13455;51.480;7.594;2023-04-24T03:09:21;10.40;99.90
25568;DHT22;13455;51.480;7.594;2023-04-24T03:11:47;10.40;99.90
25568;DHT22;13455;51.480;7.594;2023-04-24T03:14:13;10.40;99.90
25568;DHT22;13455;51.480;7.594;2023-04-24T03:16:39;10.40;99.90
25568;DHT22;13455;51.480;7.594;2023-04-24T03:19:05;10.30;99.90
25568;DHT22;13455;51.480;7.594;2023-04-24T03:21:30;10.20;99.90
25568;DHT22;13455;51.480;7.594;2023-04-24T03:23:56;10.20;99.90
25568;DHT22;13455;51.480;7.594;2023-04-24T03:26:22;10.20;99.90
25568;DHT22;13455;51.480;7.594;2023-04-24T03:28:47;10.10;99.90
25568;DHT22;13455;51.480;7.594;2023-04-24T03:31:13;10.10;99.90
25568;DHT22;13455;51.480;7.594;2023-04-24T03:33:40;10.10;99.90
25568;DHT22;13455;51.480;7.594;2023-04-24T03:36:06;10.10;99.90
25568;DHT22;13455;51.480;7.594;2023-04-24T03:38:32;10.00;99.90
25568;DHT22;13455;51.480;7.594;2023-04-24T03:40:57;10.60;99.90
25568;DHT22;13455;51.480;7.594;2023-04-24T03:43:23;9.90;99.90
25568;DHT22;13455;51.480;7.594;2023-04-24T03:45:49;9.90;99.90
25568;DHT22;13455;51.480;7.594;2023-04-24T03:48:14;9.90;99.90
25568;DHT22;13455;51.480;7.594;2023-04-24T03:50:40;9.90;99.90
25568;DHT22;13455;51.480;7.594;2023-04-24T03:53:05;9.90;99.90
25568;DHT22;13455;51.480;7.594;2023-04-24T03:55:31;9.80;99.90
25568;DHT22;13455;51.480;7.594;2023-04-24T03:57:57;9.70;99.90
25568;DHT22;13455;51.480;7.594;2023-04-24T04:00:22;9.80;99.90
25568;DHT22;13455;51.480;7.594;2023-04-24T04:02:48;9.80;99.90
25568;DHT22;13455;51.480;7.594;2023-04-24T04:05:14;9.80;99.90
25568;DHT22;13455;51.480;7.594;2023-04-24T04:07:39;9.80;99.90
25568;DHT22;13455;51.480;7.594;2023-04-24T04:10:05;9.80;99.90
25568;DHT22;13455;51.480;7.594;2023-04-24T04:12:32;9.90;99.90
25568;DHT22;13455;51.480;7.594;2023-04-24T04:14:58;9.80;99.90
25568;DHT22;13455;51.480;7.594;2023-04-24T04:17:24;10.00;99.90
25568;DHT22;13455;51.480;7.594;2023-04-24T04:19:50;9.80;99.90
25568;DHT22;13455;51.480;7.594;2023-04-24T04:22:16;9.80;99.90
25568;DHT22;13455;51.480;7.594;2023-04-24T04:24:41;10.10;99.90
25568;DHT22;13455;51.480;7.594;2023-04-24T04:27:07;9.90;99.90
25568;DHT22;13455;51.480;7.594;2023-04-24T04:29:33;9.90;99.90
25568;DHT22;13455;51.480;7.594;2023-04-24T04:32:00;9.80;99.90
25568;DHT22;13455;51.480;7.594;2023-04-24T04:34:26;9.80;99.90
25568;DHT22;13455;51.480;7.594;2023-04-24T04:36:52;10.00;99.90
25568;DHT22;13455;51.480;7.594;2023-04-24T04:39:18;9.90;99.90
25568;DHT22;13455;51.480;7.594;2023-04-24T04:41:44;9.90;99.90
25568;DHT22;13455;51.480;7.594;2023-04-24T04:44:11;9.60;99.90
25568;DHT22;13455;51.480;7.594;2023-04-24T04:46:38;10.00;99.90
25568;DHT22;13455;51.480;7.594;2023-04-24T04:49:03;9.80;99.90
25568;DHT22;13455;51.480;7.594;2023-04-24T04:51:30;9.80;99.90
25568;DHT22;13455;51.480;7.594;2023-04-24T04:53:56;9.80;99.90
25568;DHT22;13455;51.480;7.594;2023-04-24T04:56:22;10.00;99.90
25568;DHT22;13455;51.480;7.594;2023-04-24T04:58:47;9.90;99.90
25568;DHT22;13455;51.480;7.594;2023-04-24T05:01:13;9.70;99.90
25568;DHT22;13455;51.480;7.594;2023-04-24T05:03:39;9.80;99.90
25568;DHT22;13455;51.480;7.594;2023-04-24T05:06:05;9.80;99.90
25568;DHT22;13455;51.480;7.594;2023-04-24T05:08:31;9.80;99.90
25568;DHT22;13455;51.480;7.594;2023-04-24T05:10:56;9.90;99.90
25568;DHT22;13455;51.480;7.594;2023-04-24T05:13:22;10.10;99.90
25568;DHT22;13455;51.480;7.594;2023-04-24T05:15:48;9.90;99.90
25568;DHT22;13455;51.480;7.594;2023-04-24T05:18:13;9.90;99.90
25568;DHT22;13455;51.480;7.594;2023-04-24T05:20:39;9.80;99.90
25568;DHT22;13455;51.480;7.594;2023-04-24T05:23:04;9.80;99.90
25568;DHT22;13455;51.480;7.594;2023-04-24T05:25:30;9.90;99.90
25568;DHT22;13455;51.480;7.594;2023-04-24T05:28:00;10.20;99.90
25568;DHT22;13455;51.480;7.594;2023-04-24T05:30:26;9.80;99.90
25568;DHT22;13455;51.480;7.594;2023-04-24T05:32:52;9.80;99.90
25568;DHT22;13455;51.480;7.594;2023-04-24T05:35:17;9.80;99.90
25568;DHT22;13455;51.480;7.594;2023-04-24T05:37:44;9.80;99.90
25568;DHT22;13455;51.480;7.594;2023-04-24T05:40:10;9.60;99.90
25568;DHT22;13455;51.480;7.594;2023-04-24T05:42:36;9.70;99.90
25568;DHT22;13455;51.480;7.594;2023-04-24T05:45:02;9.60;99.90
25568;DHT22;13455;51.480;7.594;2023-04-24T05:47:28;9.90;99.90
25568;DHT22;13455;51.480;7.594;2023-04-24T05:49:53;10.00;99.90
25568;DHT22;13455;51.480;7.594;2023-04-24T05:52:19;10.20;99.90
25568;DHT22;13455;51.480;7.594;2023-04-24T05:54:45;10.00;99.90
25568;DHT22;13455;51.480;7.594;2023-04-24T05:57:10;9.90;99.90
25568;DHT22;13455;51.480;7.594;2023-04-24T05:59:37;10.10;99.90
25568;DHT22;13455;51.480;7.594;2023-04-24T06:02:06;10.10;99.90
25568;DHT22;13455;51.480;7.594;2023-04-24T06:04:32;10.00;99.90
25568;DHT22;13455;51.480;7.594;2023-04-24T06:06:58;9.90;99.90
25568;DHT22;13455;51.480;7.594;2023-04-24T06:09:25;10.10;99.90
25568;DHT22;13455;51.480;7.594;2023-04-24T06:11:51;9.90;99.90
25568;DHT22;13455;51.480;7.594;2023-04-24T06:14:19;10.20;99.90
25568;DHT22;13455;51.480;7.594;2023-04-24T06:16:45;9.90;99.90
25568;DHT22;13455;51.480;7.594;2023-04-24T06:19:10;9.70;99.90
25568;DHT22;13455;51.480;7.594;2023-04-24T06:21:36;9.90;99.90
25568;DHT22;13455;51.480;7.594;2023-04-24T06:24:03;9.90;99.90
25568;DHT22;13455;51.480;7.594;2023-04-24T06:26:29;10.00;99.90
25568;DHT22;13455;51.480;7.594;2023-04-24T06:28:55;10.50;99.90
25568;DHT22;13455;51.480;7.594;2023-04-24T06:31:21;10.20;99.90
25568;DHT22;13455;51.480;7.594;2023-04-24T06:33:48;10.10;99.90
25568;DHT22;13455;51.480;7.594;2023-04-24T06:36:14;9.90;99.90
25568;DHT22;13455;51.480;7.594;2023-04-24T06:38:39;10.20;99.90
25568;DHT22;13455;51.480;7.594;2023-04-24T06:41:05;10.30;99.90
25568;DHT22;13455;51.480;7.594;2023-04-24T06:43:31;10.00;99.90
25568;DHT22;13455;51.480;7.594;2023-04-24T06:45:57;10.50;99.90
25568;DHT22;13455;51.480;7.594;2023-04-24T06:48:24;10.00;99.90
25568;DHT22;13455;51.480;7.594;2023-04-24T06:50:50;10.10;99.90
25568;DHT22;13455;51.480;7.594;2023-04-24T06:53:16;10.30;99.90
25568;DHT22;13455;51.480;7.594;2023-04-24T06:55:42;10.40;99.90
25568;DHT22;13455;51.480;7.594;2023-04-24T06:58:08;10.10;99.90
25568;DHT22;13455;51.480;7.594;2023-04-24T07:00:34;10.40;99.90
25568;DHT22;13455;51.480;7.594;2023-04-24T07:03:00;10.20;99.90
25568;DHT22;13455;51.480;7.594;2023-04-24T07:05:26;10.10;99.90
25568;DHT22;13455;51.480;7.594;2023-04-24T07:07:51;10.10;99.90
25568;DHT22;13455;51.480;7.594;2023-04-24T07:10:17;10.30;99.90
25568;DHT22;13455;51.480;7.594;2023-04-24T07:12:43;10.10;99.90
25568;DHT22;13455;51.480;7.594;2023-04-24T07:15:09;10.20;99.90
25568;DHT22;13455;51.480;7.594;2023-04-24T07:17:35;10.10;99.90
25568;DHT22;13455;51.480;7.594;2023-04-24T07:20:04;10.00;99.90
25568;DHT22;13455;51.480;7.594;2023-04-24T07:24:56;10.40;99.90
25568;DHT22;13455;51.480;7.594;2023-04-24T07:27:21;10.20;99.90
25568;DHT22;13455;51.480;7.594;2023-04-24T07:29:47;10.20;99.90
25568;DHT22;13455;51.480;7.594;2023-04-24T07:32:12;10.30;99.90
25568;DHT22;13455;51.480;7.594;2023-04-24T07:44:24;10.70;99.90
25568;DHT22;13455;51.480;7.594;2023-04-24T07:46:50;10.60;99.90
25568;DHT22;13455;51.480;7.594;2023-04-24T07:49:15;10.60;99.90
25568;DHT22;13455;51.480;7.594;2023-04-24T07:51:41;10.60;99.90
25568;DHT22;13455;51.480;7.594;2023-04-24T07:54:07;10.60;99.90
25568;DHT22;13455;51.480;7.594;2023-04-24T07:56:33;10.60;99.90
25568;DHT22;13455;51.480;7.594;2023-04-24T07:58:59;10.60;99.90
25568;DHT22;13455;51.480;7.594;2023-04-24T08:01:25;10.60;99.90
25568;DHT22;13455;51.480;7.594;2023-04-24T08:03:50;10.50;99.90
25568;DHT22;13455;51.480;7.594;2023-04-24T08:06:16;10.40;99.90
25568;DHT22;13455;51.480;7.594;2023-04-24T08:08:42;10.30;99.90
25568;DHT22;13455;51.480;7.594;2023-04-24T08:11:07;10.30;99.90
25568;DHT22;13455;51.480;7.594;2023-04-24T08:13:33;10.20;99.90
25568;DHT22;13455;51.480;7.594;2023-04-24T08:15:59;10.20;99.90
25568;DHT22;13455;51.480;7.594;2023-04-24T08:18:24;10.10;99.90
25568;DHT22;13455;51.480;7.594;2023-04-24T08:20:50;10.20;99.90
25568;DHT22;13455;51.480;7.594;2023-04-24T08:23:16;10.00;99.90
25568;DHT22;13455;51.480;7.594;2023-04-24T08:25:41;10.00;99.90
25568;DHT22;13455;51.480;7.594;2023-04-24T08:28:08;10.10;99.90
25568;DHT22;13455;51.480;7.594;2023-04-24T08:30:34;10.10;99.90
25568;DHT22;13455;51.480;7.594;2023-04-24T08:33:00;10.20;99.90
25568;DHT22;13455;51.480;7.594;2023-04-24T08:35:26;10.40;99.90
25568;DHT22;13455;51.480;7.594;2023-04-24T08:37:52;10.20;99.90
25568;DHT22;13455;51.480;7.594;2023-04-24T08:40:24;10.10;99.90
25568;DHT22;13455;51.480;7.594;2023-04-24T08:42:54;10.10;99.90
25568;DHT22;13455;51.480;7.594;2023-04-24T08:45:21;9.90;99.90
25568;DHT22;13455;51.480;7.594;2023-04-24T08:47:47;9.90;99.90
25568;DHT22;13455;51.480;7.594;2023-04-24T08:50:14;9.90;99.90
25568;DHT22;13455;51.480;7.594;2023-04-24T08:52:42;9.90;99.90
25568;DHT22;13455;51.480;7.594;2023-04-24T08:55:08;9.90;99.90
25568;DHT22;13455;51.480;7.594;2023-04-24T08:57:33;9.90;99.90
25568;DHT22;13455;51.480;7.594;2023-04-24T09:00:01;9.80;99.90
25568;DHT22;13455;51.480;7.594;2023-04-24T09:02:27;9.80;99.90
25568;DHT22;13455;51.480;7.594;2023-04-24T09:04:56;9.70;99.90
25568;DHT22;13455;51.480;7.594;2023-04-24T09:07:24;9.70;99.90
25568;DHT22;13455;51.480;7.594;2023-04-24T09:09:51;9.60;99.90
25568;DHT22;13455;51.480;7.594;2023-04-24T09:12:17;9.50;99.90
25568;DHT22;13455;51.480;7.594;2023-04-24T09:14:44;9.50;99.90
25568;DHT22;13455;51.480;7.594;2023-04-24T09:17:10;9.50;99.90
25568;DHT22;13455;51.480;7.594;2023-04-24T09:19:36;9.50;99.90
25568;DHT22;13455;51.480;7.594;2023-04-24T09:22:05;9.40;99.90
25568;DHT22;13455;51.480;7.594;2023-04-24T09:24:32;9.40;99.90
25568;DHT22;13455;51.480;7.594;2023-04-24T09:26:58;9.40;99.90
25568;DHT22;13455;51.480;7.594;2023-04-24T09:29:24;9.20;99.90
25568;DHT22;13455;51.480;7.594;2023-04-24T09:31:50;9.60;99.90
25568;DHT22;13455;51.480;7.594;2023-04-24T09:34:27;9.40;99.90
25568;DHT22;13455;51.480;7.594;2023-04-24T09:36:53;9.40;99.90
25568;DHT22;13455;51.480;7.594;2023-04-24T09:39:20;9.40;99.90
25568;DHT22;13455;51.480;7.594;2023-04-24T09:46:42;9.40;99.90
25568;DHT22;13455;51.480;7.594;2023-04-24T09:49:13;9.40;99.90
25568;DHT22;13455;51.480;7.594;2023-04-24T09:51:40;9.50;99.90
25568;DHT22;13455;51.480;7.594;2023-04-24T09:54:16;9.40;99.90
25568;DHT22;13455;51.480;7.594;2023-04-24T09:56:43;9.60;99.90
25568;DHT22;13455;51.480;7.594;2023-04-24T09:59:10;9.50;99.90
25568;DHT22;13455;51.480;7.594;2023-04-24T10:01:36;9.50;99.90
25568;DHT22;13455;51.480;7.594;2023-04-24T10:04:03;9.50;99.90
25568;DHT22;13455;51.480;7.594;2023-04-24T10:06:36;9.50;99.90
25568;DHT22;13455;51.480;7.594;2023-04-24T10:09:02;9.50;99.90
25568;DHT22;13455;51.480;7.594;2023-04-24T10:11:30;9.60;99.90
25568;DHT22;13455;51.480;7.594;2023-04-24T10:13:56;9.60;99.90
25568;DHT22;13455;51.480;7.594;2023-04-24T11:06:11;9.50;99.90
25568;DHT22;13455;51.480;7.594;2023-04-24T11:08:45;9.50;99.90
25568;DHT22;13455;51.480;7.594;2023-04-24T11:11:13;9.50;99.90
25568;DHT22;13455;51.480;7.594;2023-04-24T11:18:59;9.60;99.90
25568;DHT22;13455;51.480;7.594;2023-04-24T11:21:25;9.60;99.90
25568;DHT22;13455;51.480;7.594;2023-04-24T11:23:56;9.60;99.90
25568;DHT22;13455;51.480;7.594;2023-04-24T11:26:22;9.50;99.90
25568;DHT22;13455;51.480;7.594;2023-04-24T11:29:06;9.50;99.90
25568;DHT22;13455;51.480;7.594;2023-04-24T11:31:40;9.50;99.90
25568;DHT22;13455;51.480;7.594;2023-04-24T11:34:12;9.50;99.90
25568;DHT22;13455;51.480;7.594;2023-04-24T11:36:40;9.50;99.90
25568;DHT22;13455;51.480;7.594;2023-04-24T11:39:07;9.50;99.90
25568;DHT22;13455;51.480;7.594;2023-04-24T11:41:34;9.50;99.90
25568;DHT22;13455;51.480;7.594;2023-04-24T11:44:00;9.60;99.90
25568;DHT22;13455;51.480;7.594;2023-04-24T11:46:28;9.70;99.90
25568;DHT22;13455;51.480;7.594;2023-04-24T11:48:55;9.70;99.90
25568;DHT22;13455;51.480;7.594;2023-04-24T11:51:22;9.70;99.90
25568;DHT22;13455;51.480;7.594;2023-04-24T11:53:49;9.80;99.90
25568;DHT22;13455;51.480;7.594;2023-04-24T11:56:18;9.70;99.90
25568;DHT22;13455;51.480;7.594;2023-04-24T11:58:47;9.80;99.90
25568;DHT22;13455;51.480;7.594;2023-04-24T12:01:12;9.70;99.90
25568;DHT22;13455;51.480;7.594;2023-04-24T12:03:38;9.70;99.90
25568;DHT22;13455;51.480;7.594;2023-04-24T12:08:35;9.90;99.90
25568;DHT22;13455;51.480;7.594;2023-04-24T12:11:02;10.30;99.90
25568;DHT22;13455;51.480;7.594;2023-04-24T12:13:28;10.00;99.90
25568;DHT22;13455;51.480;7.594;2023-04-24T12:15:54;10.10;99.90
25568;DHT22;13455;51.480;7.594;2023-04-24T12:18:23;10.10;99.90
25568;DHT22;13455;51.480;7.594;2023-04-24T12:20:49;10.20;99.90
25568;DHT22;13455;51.480;7.594;2023-04-24T12:23:15;10.10;99.90
25568;DHT22;13455;51.480;7.594;2023-04-24T12:25:41;10.10;99.90
25568;DHT22;13455;51.480;7.594;2023-04-24T12:30:49;9.90;99.90
25568;DHT22;13455;51.480;7.594;2023-04-24T12:33:22;9.90;99.90
25568;DHT22;13455;51.480;7.594;2023-04-24T12:35:57;9.90;99.90
25568;DHT22;13455;51.480;7.594;2023-04-24T12:38:26;9.80;99.90
25568;DHT22;13455;51.480;7.594;2023-04-24T12:41:12;9.80;99.90
25568;DHT22;13455;51.480;7.594;2023-04-24T12:43:38;9.80;99.90
25568;DHT22;13455;51.480;7.594;2023-04-24T12:46:15;9.90;99.90
25568;DHT22;13455;51.480;7.594;2023-04-24T12:48:41;10.00;99.90
25568;DHT22;13455;51.480;7.594;2023-04-24T12:51:06;10.10;99.90
25568;DHT22;13455;51.480;7.594;2023-04-24T12:53:32;10.30;99.90
25568;DHT22;13455;51.480;7.594;2023-04-24T12:55:58;10.50;99.90
25568;DHT22;13455;51.480;7.594;2023-04-24T12:58:24;10.70;99.90
25568;DHT22;13455;51.480;7.594;2023-04-24T13:00:50;10.80;99.90
25568;DHT22;13455;51.480;7.594;2023-04-24T13:03:15;10.80;99.90
25568;DHT22;13455;51.480;7.594;2023-04-24T13:05:42;11.00;99.90
25568;DHT22;13455;51.480;7.594;2023-04-24T13:08:08;11.10;99.90
25568;DHT22;13455;51.480;7.594;2023-04-24T13:10:34;10.80;99.90
25568;DHT22;13455;51.480;7.594;2023-04-24T13:12:59;10.70;99.90
25568;DHT22;13455;51.480;7.594;2023-04-24T13:15:25;10.80;99.90
25568;DHT22;13455;51.480;7.594;2023-04-24T13:17:51;10.70;99.90
25568;DHT22;13455;51.480;7.594;2023-04-24T13:20:17;10.70;99.90
25568;DHT22;13455;51.480;7.594;2023-04-24T13:22:43;10.60;99.90
25568;DHT22;13455;51.480;7.594;2023-04-24T13:25:08;10.50;99.90
25568;DHT22;13455;51.480;7.594;2023-04-24T13:27:34;10.60;99.90
25568;DHT22;13455;51.480;7.594;2023-04-24T13:30:00;10.50;99.90
25568;DHT22;13455;51.480;7.594;2023-04-24T13:32:25;10.50;99.90
25568;DHT22;13455;51.480;7.594;2023-04-24T13:34:52;10.40;99.90
25568;DHT22;13455;51.480;7.594;2023-04-24T13:37:17;10.50;99.90
25568;DHT22;13455;51.480;7.594;2023-04-24T13:39:43;10.70;99.90
25568;DHT22;13455;51.480;7.594;2023-04-24T13:42:09;10.80;99.90
25568;DHT22;13455;51.480;7.594;2023-04-24T13:44:35;10.90;99.90
25568;DHT22;13455;51.480;7.594;2023-04-24T13:47:00;11.00;99.90
25568;DHT22;13455;51.480;7.594;2023-04-24T13:49:26;11.60;99.90
25568;DHT22;13455;51.480;7.594;2023-04-24T13:51:53;11.10;99.90
25568;DHT22;13455;51.480;7.594;2023-04-24T13:54:19;11.10;99.90
25568;DHT22;13455;51.480;7.594;2023-04-24T13:56:45;11.10;99.90
25568;DHT22;13455;51.480;7.594;2023-04-24T13:59:12;11.00;99.90
25568;DHT22;13455;51.480;7.594;2023-04-24T14:01:38;11.00;99.90
25568;DHT22;13455;51.480;7.594;2023-04-24T14:04:04;11.20;99.90
25568;DHT22;13455;51.480;7.594;2023-04-24T14:06:29;11.00;99.90
25568;DHT22;13455;51.480;7.594;2023-04-24T14:08:56;11.00;99.90
25568;DHT22;13455;51.480;7.594;2023-04-24T14:11:22;11.00;99.90
25568;DHT22;13455;51.480;7.594;2023-04-24T14:13:48;10.90;99.90
25568;DHT22;13455;51.480;7.594;2023-04-24T14:16:14;10.90;99.90
25568;DHT22;13455;51.480;7.594;2023-04-24T14:18:40;10.90;99.90
25568;DHT22;13455;51.480;7.594;2023-04-24T14:21:05;11.00;99.90
25568;DHT22;13455;51.480;7.594;2023-04-24T14:23:31;10.80;99.90
25568;DHT22;13455;51.480;7.594;2023-04-24T14:25:58;10.70;99.90
25568;DHT22;13455;51.480;7.594;2023-04-24T14:30:50;11.20;99.90
25568;DHT22;13455;51.480;7.594;2023-04-24T14:33:15;11.20;99.90
25568;DHT22;13455;51.480;7.594;2023-04-24T14:35:41;11.30;99.90
25568;DHT22;13455;51.480;7.594;2023-04-24T14:38:10;11.40;99.90
25568;DHT22;13455;51.480;7.594;2023-04-24T14:43:02;11.60;99.90
25568;DHT22;13455;51.480;7.594;2023-04-24T14:45:28;11.70;99.90
25568;DHT22;13455;51.480;7.594;2023-04-24T14:47:54;11.70;99.90
25568;DHT22;13455;51.480;7.594;2023-04-24T14:50:20;11.70;99.90
25568;DHT22;13455;51.480;7.594;2023-04-24T14:52:47;11.80;99.90
25568;DHT22;13455;51.480;7.594;2023-04-24T14:55:12;11.80;99.90
25568;DHT22;13455;51.480;7.594;2023-04-24T14:57:38;11.80;99.90
25568;DHT22;13455;51.480;7.594;2023-04-24T15:00:06;11.80;99.90
25568;DHT22;13455;51.480;7.594;2023-04-24T15:05:02;11.90;99.90
25568;DHT22;13455;51.480;7.594;2023-04-24T15:07:27;11.90;99.90
25568;DHT22;13455;51.480;7.594;2023-04-24T15:09:53;11.90;99.90
25568;DHT22;13455;51.480;7.594;2023-04-24T15:12:19;11.90;99.90
25568;DHT22;13455;51.480;7.594;2023-04-24T15:14:44;12.60;99.90
25568;DHT22;13455;51.480;7.594;2023-04-24T15:17:10;11.80;99.90
25568;DHT22;13455;51.480;7.594;2023-04-24T15:19:35;11.80;99.90
25568;DHT22;13455;51.480;7.594;2023-04-24T15:22:01;11.70;99.90
25568;DHT22;13455;51.480;7.594;2023-04-24T15:24:26;11.60;99.90
25568;DHT22;13455;51.480;7.594;2023-04-24T15:26:53;11.50;99.90
25568;DHT22;13455;51.480;7.594;2023-04-24T15:29:18;11.50;99.90
25568;DHT22;13455;51.480;7.594;2023-04-24T15:31:44;11.40;99.90
25568;DHT22;13455;51.480;7.594;2023-04-24T15:34:10;11.40;99.90
25568;DHT22;13455;51.480;7.594;2023-04-24T15:36:35;11.40;99.90
25568;DHT22;13455;51.480;7.594;2023-04-24T15:39:02;11.40;99.90
25568;DHT22;13455;51.480;7.594;2023-04-24T15:41:28;11.30;99.90
25568;DHT22;13455;51.480;7.594;2023-04-24T15:43:53;11.30;99.90
25568;DHT22;13455;51.480;7.594;2023-04-24T15:46:19;11.20;99.90
25568;DHT22;13455;51.480;7.594;2023-04-24T15:48:45;11.10;99.90
25568;DHT22;13455;51.480;7.594;2023-04-24T15:51:10;11.20;99.90
25568;DHT22;13455;51.480;7.594;2023-04-24T15:53:36;11.20;99.90
25568;DHT22;13455;51.480;7.594;2023-04-24T15:56:02;11.40;99.90
25568;DHT22;13455;51.480;7.594;2023-04-24T15:58:28;12.80;99.90
25568;DHT22;13455;51.480;7.594;2023-04-24T16:00:53;12.80;99.90
25568;DHT22;13455;51.480;7.594;2023-04-24T16:03:20;13.40;99.90
25568;DHT22;13455;51.480;7.594;2023-04-24T16:05:45;13.80;99.90
25568;DHT22;13455;51.480;7.594;2023-04-24T16:08:13;13.60;99.90
25568;DHT22;13455;51.480;7.594;2023-04-24T16:10:40;13.70;99.90
25568;DHT22;13455;51.480;7.594;2023-04-24T16:13:06;13.80;99.90
25568;DHT22;13455;51.480;7.594;2023-04-24T16:17:59;13.90;99.90
25568;DHT22;13455;51.480;7.594;2023-04-24T16:22:50;13.90;99.90
25568;DHT22;13455;51.480;7.594;2023-04-24T16:25:16;13.80;99.90
25568;DHT22;13455;51.480;7.594;2023-04-24T16:27:42;13.70;99.90
25568;DHT22;13455;51.480;7.594;2023-04-24T16:30:08;13.70;99.90
25568;DHT22;13455;51.480;7.594;2023-04-24T16:32:34;13.50;99.90
25568;DHT22;13455;51.480;7.594;2023-04-24T16:35:00;13.60;99.90
25568;DHT22;13455;51.480;7.594;2023-04-24T16:37:28;14.20;99.90
25568;DHT22;13455;51.480;7.594;2023-04-24T16:39:53;14.50;99.90
25568;DHT22;13455;51.480;7.594;2023-04-24T16:42:19;14.00;99.90
25568;DHT22;13455;51.480;7.594;2023-04-24T16:47:12;13.50;99.90
25568;DHT22;13455;51.480;7.594;2023-04-24T16:49:41;13.50;99.90
25568;DHT22;13455;51.480;7.594;2023-04-24T16:52:08;13.00;99.90
25568;DHT22;13455;51.480;7.594;2023-04-24T16:54:33;13.40;99.90
25568;DHT22;13455;51.480;7.594;2023-04-24T16:57:01;12.80;99.90
25568;DHT22;13455;51.480;7.594;2023-04-24T16:59:28;13.00;99.90
25568;DHT22;13455;51.480;7.594;2023-04-24T17:01:53;12.60;99.90